Time;durP1;ratioP1;P1;durP2;ratioP2;P2;SDS_P1;SDS_P2;PMS_P1;PMS_P2;Temp;Humidity;BMP_temperature;BMP_pressure;BME280_temperature;BME280_humidity;BME280_pressure;Samples;Min_cycle;Max_cycle;Signal;HPM_P1;HPM_P2
2023/08/08 00:00:08;;;;;;;4.97;1.13;;;14.30;99.90;;;;;;5070165;28;20194;-65
2023/08/08 00:02:34;;;;;;;2.80;1.20;;;14.40;99.90;;;;;;5070138;28;20208;-65
2023/08/08 00:04:59;;;;;;;1.70;0.90;;;14.30;99.90;;;;;;5070159;28;20421;-65
2023/08/08 00:07:26;;;;;;;3.70;1.60;;;14.30;99.90;;;;;;5070486;28;20183;-65
2023/08/08 00:09:51;;;;;;;1.50;1.33;;;14.30;99.90;;;;;;5069968;28;20203;-65
2023/08/08 00:12:17;;;;;;;1.90;1.37;;;14.30;99.90;;;;;;5069869;28;20450;-65
2023/08/08 00:14:42;;;;;;;1.50;1.40;;;14.30;99.90;;;;;;5070003;28;20192;-65
2023/08/08 00:17:08;;;;;;;2.50;1.10;;;14.30;99.90;;;;;;5069892;28;20232;-65
2023/08/08 00:19:34;;;;;;;3.70;1.20;;;14.30;99.90;;;;;;5051728;28;20236;-66
2023/08/08 00:21:59;;;;;;;2.17;1.07;;;14.30;99.90;;;;;;5069672;28;20260;-65
2023/08/08 00:24:25;;;;;;;2.13;1.63;;;14.20;99.90;;;;;;5070203;28;20192;-65
2023/08/08 00:26:51;;;;;;;5.53;1.20;;;14.30;99.90;;;;;;5069746;28;20189;-65
2023/08/08 00:29:16;;;;;;;4.93;1.20;;;14.30;99.90;;;;;;5069446;28;20626;-65
2023/08/08 00:31:42;;;;;;;3.30;1.30;;;14.30;99.90;;;;;;5069684;28;20207;-65
2023/08/08 00:34:07;;;;;;;2.60;1.33;;;14.20;99.90;;;;;;5069550;28;20667;-65
2023/08/08 00:36:33;;;;;;;2.27;1.30;;;14.20;99.90;;;;;;5069531;28;20176;-65
2023/08/08 00:38:58;;;;;;;2.93;1.20;;;14.30;99.90;;;;;;5069751;28;20241;-65
2023/08/08 00:41:25;;;;;;;1.70;1.30;;;14.30;99.90;;;;;;5068290;28;20215;-65
2023/08/08 00:43:51;;;;;;;4.60;1.57;;;14.30;99.90;;;;;;5069304;28;20188;-65
2023/08/08 00:46:20;;;;;;;2.30;1.20;;;14.30;99.90;;;;;;5069461;28;20798;-65
2023/08/08 00:48:46;;;;;;;1.43;1.10;;;14.30;99.90;;;;;;5069251;28;20195;-65
2023/08/08 00:51:12;;;;;;;1.23;1.10;;;14.30;99.90;;;;;;5069403;28;20490;-65
2023/08/08 00:53:38;;;;;;;1.57;1.30;;;14.30;99.90;;;;;;5069452;28;20191;-65
2023/08/08 00:56:04;;;;;;;2.77;1.20;;;14.30;99.90;;;;;;5069306;28;20454;-65
2023/08/08 00:58:29;;;;;;;4.80;1.90;;;14.30;99.90;;;;;;5069232;28;20662;-65
2023/08/08 01:00:57;;;;;;;2.67;1.20;;;14.30;99.90;;;;;;5069088;28;20476;-65
2023/08/08 01:03:23;;;;;;;4.23;1.10;;;14.30;99.90;;;;;;5069163;28;20254;-65
2023/08/08 01:05:57;;;;;;;1.63;1.30;;;14.40;99.90;;;;;;5069250;28;20414;-65
2023/08/08 01:08:27;;;;;;;2.57;1.40;;;14.40;99.90;;;;;;5068956;28;20205;-65
2023/08/08 01:10:53;;;;;;;2.37;1.10;;;14.30;99.90;;;;;;5069248;28;20936;-65
2023/08/08 01:13:23;;;;;;;4.13;1.10;;;14.40;99.90;;;;;;5069511;28;20428;-65
2023/08/08 01:15:49;;;;;;;2.17;1.10;;;14.40;99.90;;;;;;5069698;28;20406;-65
2023/08/08 01:18:16;;;;;;;2.33;1.23;;;14.50;99.90;;;;;;5069736;28;20417;-65
2023/08/08 01:20:44;;;;;;;1.97;1.40;;;14.40;99.90;;;;;;5069526;28;20413;-65
2023/08/08 01:23:32;;;;;;;2.03;1.30;;;14.40;99.90;;;;;;5069504;28;20425;-65
2023/08/08 01:25:59;;;;;;;1.93;1.57;;;14.50;99.90;;;;;;5069634;28;20424;-65
2023/08/08 01:28:25;;;;;;;2.37;1.53;;;14.50;99.90;;;;;;5069575;28;21136;-65
2023/08/08 01:30:51;;;;;;;2.70;1.00;;;14.60;99.90;;;;;;5069579;28;20906;-64
2023/08/08 01:33:17;;;;;;;1.60;1.10;;;14.60;99.90;;;;;;5069558;28;20445;-65
2023/08/08 01:35:47;;;;;;;2.00;1.40;;;14.60;99.90;;;;;;5069611;28;20269;-65
2023/08/08 01:38:38;;;;;;;1.83;0.87;;;14.60;99.90;;;;;;5069266;28;20232;-64
2023/08/08 01:41:05;;;;;;;4.90;0.87;;;14.60;99.90;;;;;;5069304;28;20438;-65
2023/08/08 01:43:32;;;;;;;1.77;1.10;;;14.60;99.90;;;;;;5069412;28;20425;-64
2023/08/08 01:46:00;;;;;;;3.20;1.47;;;14.60;99.90;;;;;;5069422;28;20935;-65
2023/08/08 01:48:27;;;;;;;2.77;1.40;;;14.70;99.90;;;;;;5069092;28;20888;-65
2023/08/08 01:50:52;;;;;;;3.73;1.40;;;14.60;99.90;;;;;;5068968;28;20437;-65
2023/08/08 01:53:18;;;;;;;8.53;1.27;;;14.60;99.90;;;;;;5050395;28;20426;-65
2023/08/08 01:55:44;;;;;;;2.13;1.43;;;14.60;99.90;;;;;;5068856;28;20194;-65
2023/08/08 01:58:09;;;;;;;1.73;1.20;;;14.60;99.90;;;;;;5068555;28;20185;-65
2023/08/08 02:00:36;;;;;;;2.80;1.40;;;14.60;99.90;;;;;;5068644;28;20195;-65
2023/08/08 02:03:02;;;;;;;4.27;1.53;;;14.60;99.90;;;;;;5068536;28;20183;-65
2023/08/08 02:05:27;;;;;;;2.73;1.43;;;14.70;99.90;;;;;;5068734;28;20456;-65
2023/08/08 02:07:53;;;;;;;2.30;1.23;;;14.80;99.90;;;;;;5068462;28;20424;-65
2023/08/08 02:10:19;;;;;;;1.90;1.20;;;14.80;99.90;;;;;;5050572;28;20557;-65
2023/08/08 02:12:44;;;;;;;1.47;1.37;;;14.80;99.90;;;;;;5068426;28;20199;-65
2023/08/08 02:15:10;;;;;;;1.97;1.37;;;14.80;99.90;;;;;;5069026;28;20657;-65
2023/08/08 02:17:37;;;;;;;1.30;1.20;;;14.80;99.90;;;;;;5068834;28;20188;-65
2023/08/08 02:20:04;;;;;;;1.83;1.30;;;14.80;99.90;;;;;;5069013;28;20184;-65
2023/08/08 02:22:29;;;;;;;1.20;1.10;;;14.80;99.90;;;;;;5068872;28;20517;-64
2023/08/08 02:24:55;;;;;;;1.53;1.00;;;14.80;99.90;;;;;;5050862;28;20518;-65
2023/08/08 02:27:20;;;;;;;3.07;1.20;;;14.70;99.90;;;;;;5068995;28;20192;-65
2023/08/08 02:29:46;;;;;;;1.80;1.50;;;14.70;99.90;;;;;;5068776;28;20635;-65
2023/08/08 02:32:13;;;;;;;2.33;1.20;;;14.70;99.90;;;;;;5068786;28;20208;-65
2023/08/08 02:34:38;;;;;;;2.47;1.30;;;14.70;99.90;;;;;;5068603;28;20191;-65
2023/08/08 02:37:04;;;;;;;4.10;1.23;;;14.80;99.90;;;;;;5068747;28;20426;-65
2023/08/08 02:39:30;;;;;;;2.80;1.00;;;14.80;99.90;;;;;;5068872;28;20219;-65
2023/08/08 02:41:55;;;;;;;1.90;1.40;;;14.80;99.90;;;;;;5068725;28;20282;-65
2023/08/08 02:44:22;;;;;;;2.00;1.33;;;14.80;99.90;;;;;;5068848;28;20185;-65
2023/08/08 02:46:48;;;;;;;2.70;1.10;;;14.80;99.90;;;;;;5068822;28;20643;-65
2023/08/08 02:49:14;;;;;;;1.97;1.13;;;14.80;99.90;;;;;;5068698;28;20473;-65
2023/08/08 02:51:39;;;;;;;3.37;1.30;;;14.70;99.90;;;;;;5068746;28;20437;-65
2023/08/08 02:54:05;;;;;;;2.80;1.33;;;14.70;99.90;;;;;;5068673;28;20258;-65
2023/08/08 02:56:30;;;;;;;2.30;1.00;;;14.60;99.90;;;;;;5068667;28;20670;-65
2023/08/08 02:58:56;;;;;;;2.03;1.10;;;14.70;99.90;;;;;;5068587;28;20188;-65
2023/08/08 03:01:22;;;;;;;4.80;1.77;;;14.70;99.90;;;;;;5068613;28;20303;-65
2023/08/08 03:03:48;;;;;;;4.13;1.60;;;14.70;99.90;;;;;;5068750;28;20702;-65
2023/08/08 03:06:13;;;;;;;1.70;1.20;;;14.60;99.90;;;;;;5072314;28;20195;-65
2023/08/08 03:08:39;;;;;;;1.70;0.90;;;14.60;99.90;;;;;;5072016;28;20480;-65
2023/08/08 03:11:04;;;;;;;1.90;1.13;;;14.60;99.90;;;;;;5071971;28;20207;-65
2023/08/08 03:13:30;;;;;;;3.23;1.40;;;14.60;99.90;;;;;;5072083;28;20714;-65
2023/08/08 03:15:56;;;;;;;1.10;0.80;;;14.60;99.90;;;;;;5071808;28;20184;-64
2023/08/08 03:18:22;;;;;;;1.20;1.00;;;14.60;99.90;;;;;;5071935;28;20183;-65
2023/08/08 03:20:48;;;;;;;2.10;1.20;;;14.60;99.90;;;;;;5071750;28;20802;-65
2023/08/08 03:23:14;;;;;;;2.70;1.40;;;14.60;99.90;;;;;;5071524;28;20418;-65
2023/08/08 03:25:40;;;;;;;7.13;1.10;;;14.60;99.90;;;;;;5071198;28;20544;-64
2023/08/08 03:28:05;;;;;;;4.20;1.27;;;14.60;99.90;;;;;;5071430;28;20266;-65
2023/08/08 03:30:31;;;;;;;1.70;1.40;;;14.60;99.90;;;;;;5052845;28;20219;-65
2023/08/08 03:32:56;;;;;;;1.60;1.00;;;14.70;99.90;;;;;;5071041;28;20207;-65
2023/08/08 03:35:22;;;;;;;1.33;1.03;;;14.70;99.90;;;;;;5070933;28;20189;-65
2023/08/08 03:37:47;;;;;;;1.40;1.20;;;14.70;99.90;;;;;;5070722;28;20653;-65
2023/08/08 03:40:15;;;;;;;2.20;1.37;;;14.70;99.90;;;;;;5070682;28;20277;-65
2023/08/08 03:42:41;;;;;;;3.17;1.43;;;14.70;99.90;;;;;;5070690;28;20212;-65
2023/08/08 03:45:07;;;;;;;1.53;1.00;;;14.60;99.90;;;;;;5052592;28;20439;-65
2023/08/08 03:47:33;;;;;;;1.30;1.10;;;14.60;99.90;;;;;;5070502;28;20538;-65
2023/08/08 03:49:58;;;;;;;2.00;1.20;;;14.70;99.90;;;;;;5070317;28;20494;-66
2023/08/08 03:52:24;;;;;;;2.27;1.13;;;14.70;99.90;;;;;;5070318;28;20570;-65
2023/08/08 03:54:51;;;;;;;1.43;1.00;;;14.70;99.90;;;;;;5070255;28;20196;-66
2023/08/08 03:57:17;;;;;;;4.30;1.27;;;14.70;99.90;;;;;;5052438;28;20206;-65
2023/08/08 03:59:42;;;;;;;1.47;1.20;;;14.70;99.90;;;;;;5070246;28;20426;-66
2023/08/08 04:02:08;;;;;;;1.40;1.13;;;14.60;99.90;;;;;;5070202;28;20231;-65
2023/08/08 04:04:34;;;;;;;2.60;0.87;;;14.60;99.90;;;;;;5070077;28;20196;-65
2023/08/08 04:06:59;;;;;;;2.17;1.30;;;14.60;99.90;;;;;;5070200;28;20252;-65
2023/08/08 04:09:25;;;;;;;2.07;1.20;;;14.60;99.90;;;;;;5069938;28;20212;-66
2023/08/08 04:11:50;;;;;;;1.30;1.00;;;14.60;99.90;;;;;;5069904;28;20640;-66
2023/08/08 04:14:16;;;;;;;2.63;1.40;;;14.60;99.90;;;;;;5069865;28;20205;-65
2023/08/08 04:16:42;;;;;;;1.60;1.00;;;14.50;99.90;;;;;;5069567;28;20190;-66
2023/08/08 04:19:07;;;;;;;3.53;1.77;;;14.60;99.90;;;;;;5069726;28;20192;-65
2023/08/08 04:21:33;;;;;;;2.33;1.20;;;14.60;99.90;;;;;;5069730;28;20211;-66
2023/08/08 04:23:59;;;;;;;2.57;1.47;;;14.60;99.90;;;;;;5070034;28;20199;-66
2023/08/08 04:26:25;;;;;;;2.10;1.00;;;14.60;99.90;;;;;;5069850;28;20569;-65
2023/08/08 04:28:51;;;;;;;1.20;0.80;;;14.60;99.90;;;;;;5069576;28;20472;-66
2023/08/08 04:31:16;;;;;;;3.80;1.13;;;14.60;99.90;;;;;;5069421;28;21340;-65
2023/08/08 04:33:42;;;;;;;1.53;1.20;;;14.70;99.90;;;;;;5069447;28;20175;-66
2023/08/08 04:36:07;;;;;;;1.37;1.00;;;14.70;99.90;;;;;;5069571;28;20241;-66
2023/08/08 04:38:33;;;;;;;2.17;0.90;;;14.70;99.90;;;;;;5069556;28;20280;-66
2023/08/08 04:41:00;;;;;;;1.17;1.07;;;14.80;99.90;;;;;;5069639;28;20591;-66
2023/08/08 04:43:27;;;;;;;3.00;1.53;;;14.80;99.90;;;;;;5069439;28;20204;-66
2023/08/08 04:45:53;;;;;;;1.57;1.00;;;14.80;99.90;;;;;;5069807;28;20513;-67
2023/08/08 04:48:19;;;;;;;2.50;1.10;;;14.90;99.90;;;;;;5069299;28;20500;-66
2023/08/08 04:50:46;;;;;;;2.17;1.30;;;14.90;99.90;;;;;;5069229;28;20226;-66
2023/08/08 04:53:12;;;;;;;3.90;1.07;;;14.90;99.90;;;;;;5069313;28;20757;-66
2023/08/08 04:55:37;;;;;;;1.30;1.20;;;14.90;99.90;;;;;;5069268;28;20475;-66
2023/08/08 04:58:03;;;;;;;1.77;1.40;;;14.90;99.90;;;;;;5069299;28;20851;-65
2023/08/08 05:00:29;;;;;;;1.60;1.10;;;15.00;99.90;;;;;;5069094;28;20195;-65
2023/08/08 05:02:54;;;;;;;3.13;1.20;;;15.00;99.90;;;;;;5050953;28;21014;-66
2023/08/08 05:05:20;;;;;;;1.60;1.00;;;14.90;99.90;;;;;;5068982;28;20189;-66
2023/08/08 05:07:45;;;;;;;1.30;1.20;;;14.90;99.90;;;;;;5069126;28;20180;-66
2023/08/08 05:10:11;;;;;;;3.83;1.67;;;14.90;99.90;;;;;;5068927;28;20576;-65
2023/08/08 05:12:36;;;;;;;2.80;0.90;;;15.00;99.90;;;;;;5068925;28;20291;-66
2023/08/08 05:15:02;;;;;;;6.77;1.10;;;15.00;99.90;;;;;;5068882;28;20328;-66
2023/08/08 05:17:31;;;;;;;1.40;1.17;;;15.00;99.90;;;;;;5068779;28;20185;-66
2023/08/08 05:19:56;;;;;;;1.27;1.13;;;15.00;99.90;;;;;;5068786;28;20298;-66
2023/08/08 05:22:22;;;;;;;4.30;1.20;;;15.00;99.90;;;;;;5068951;28;20582;-66
2023/08/08 05:24:47;;;;;;;1.80;1.03;;;15.10;99.90;;;;;;5068838;28;20593;-66
2023/08/08 05:27:13;;;;;;;3.63;1.37;;;15.00;99.90;;;;;;5068226;28;20188;-65
2023/08/08 05:29:40;;;;;;;1.20;1.07;;;15.10;99.90;;;;;;5068688;28;20258;-66
2023/08/08 05:32:07;;;;;;;1.57;1.03;;;15.20;99.90;;;;;;5068815;28;20553;-65
2023/08/08 05:34:35;;;;;;;2.30;1.10;;;15.30;99.90;;;;;;5050975;28;20441;-66
2023/08/08 05:37:01;;;;;;;1.77;1.00;;;15.40;99.90;;;;;;5068768;28;20419;-65
2023/08/08 05:39:27;;;;;;;1.97;1.20;;;15.40;99.90;;;;;;5068944;28;20506;-65
2023/08/08 05:41:53;;;;;;;4.23;1.40;;;15.40;99.90;;;;;;5068903;28;20442;-65
2023/08/08 05:44:19;;;;;;;3.23;1.10;;;15.40;99.90;;;;;;5068924;28;20189;-65
2023/08/08 05:46:44;;;;;;;1.93;0.90;;;15.50;99.90;;;;;;5069068;28;20300;-67
2023/08/08 05:49:10;;;;;;;2.63;1.33;;;15.50;99.90;;;;;;5069237;28;20463;-66
2023/08/08 05:51:35;;;;;;;2.40;1.30;;;15.50;99.90;;;;;;5069175;28;20605;-67
2023/08/08 05:54:01;;;;;;;2.93;1.07;;;15.60;99.90;;;;;;5069329;28;20192;-67
2023/08/08 05:56:36;;;;;;;4.83;1.20;;;15.60;99.90;;;;;;5069107;28;20193;-65
2023/08/08 05:59:02;;;;;;;3.20;1.20;;;15.60;99.90;;;;;;5069080;28;20186;-65
2023/08/08 06:01:27;;;;;;;1.43;1.00;;;15.70;99.90;;;;;;5068977;28;20442;-65
2023/08/08 06:03:53;;;;;;;4.60;1.40;;;15.80;99.90;;;;;;5069229;28;20201;-65
2023/08/08 06:06:19;;;;;;;3.43;1.10;;;15.80;99.90;;;;;;5051115;28;20196;-65
2023/08/08 06:08:44;;;;;;;4.20;1.03;;;15.90;99.90;;;;;;5069181;28;20196;-65
2023/08/08 06:11:10;;;;;;;2.10;1.23;;;16.10;99.90;;;;;;5068778;28;20304;-66
2023/08/08 06:13:36;;;;;;;2.40;1.37;;;16.20;99.90;;;;;;5050234;28;20616;-66
2023/08/08 06:16:06;;;;;;;3.33;1.13;;;16.40;99.90;;;;;;5068108;28;20715;-66
2023/08/08 06:18:32;;;;;;;1.10;0.90;;;16.50;99.90;;;;;;5068057;28;20443;-66
2023/08/08 06:20:58;;;;;;;2.53;1.20;;;16.50;99.90;;;;;;5068114;28;20834;-65
2023/08/08 06:23:23;;;;;;;2.20;1.23;;;16.50;99.90;;;;;;5068133;28;20414;-66
2023/08/08 06:25:49;;;;;;;1.83;1.07;;;16.60;99.90;;;;;;5068509;28;20182;-66
2023/08/08 06:28:14;;;;;;;2.23;1.30;;;16.80;99.90;;;;;;5068190;28;20188;-65
2023/08/08 06:30:40;;;;;;;1.83;1.30;;;16.80;99.90;;;;;;5067850;28;20214;-66
2023/08/08 06:33:06;;;;;;;2.70;1.40;;;16.80;99.90;;;;;;5068144;28;20189;-66
2023/08/08 06:35:31;;;;;;;3.13;1.03;;;16.80;99.90;;;;;;5068285;28;20213;-65
2023/08/08 06:37:57;;;;;;;2.13;1.13;;;16.90;99.90;;;;;;5068407;28;20656;-66
2023/08/08 06:40:23;;;;;;;2.23;1.20;;;17.00;99.90;;;;;;5072097;28;20194;-66
2023/08/08 06:42:49;;;;;;;1.10;1.00;;;16.90;99.90;;;;;;5071725;28;20608;-66
2023/08/08 06:45:14;;;;;;;4.33;1.17;;;17.00;99.90;;;;;;5071660;28;20454;-66
2023/08/08 06:47:40;;;;;;;3.73;1.60;;;17.20;99.90;;;;;;5071793;28;20724;-66
2023/08/08 06:50:07;;;;;;;1.13;1.00;;;17.30;99.90;;;;;;5071775;28;20317;-66
2023/08/08 06:52:32;;;;;;;2.00;1.07;;;17.40;99.90;;;;;;5071335;28;20210;-66
2023/08/08 06:54:58;;;;;;;2.13;1.20;;;17.30;99.90;;;;;;5071264;28;20431;-66
2023/08/08 06:57:23;;;;;;;2.00;1.27;;;17.40;99.90;;;;;;5071334;28;20221;-66
2023/08/08 06:59:50;;;;;;;4.67;1.50;;;17.50;99.90;;;;;;5071064;28;20229;-66
2023/08/08 07:02:17;;;;;;;1.63;1.47;;;17.50;99.90;;;;;;5071139;28;20205;-66
2023/08/08 07:04:42;;;;;;;1.30;1.20;;;17.40;99.90;;;;;;5071143;28;20429;-65
2023/08/08 07:07:08;;;;;;;1.33;1.00;;;17.40;99.90;;;;;;5071149;28;20435;-66
2023/08/08 07:09:34;;;;;;;1.37;1.13;;;17.30;99.90;;;;;;5071219;28;20213;-66
2023/08/08 07:12:00;;;;;;;4.03;1.27;;;17.30;99.90;;;;;;5071076;28;20217;-66
2023/08/08 07:14:25;;;;;;;2.63;1.70;;;17.30;99.90;;;;;;5071107;28;20432;-66
2023/08/08 07:16:53;;;;;;;1.63;1.17;;;17.30;99.90;;;;;;5071042;28;20224;-66
2023/08/08 07:19:19;;;;;;;2.00;1.20;;;17.30;99.90;;;;;;5071234;28;20204;-65
2023/08/08 07:21:44;;;;;;;2.67;0.97;;;17.30;99.90;;;;;;5071123;28;20452;-66
2023/08/08 07:24:10;;;;;;;2.03;0.90;;;17.40;99.90;;;;;;5071058;28;20798;-66
2023/08/08 07:26:35;;;;;;;4.23;1.30;;;17.40;99.90;;;;;;5071173;28;20220;-66
2023/08/08 07:29:01;;;;;;;3.03;1.33;;;17.40;99.90;;;;;;5070982;28;20673;-66
2023/08/08 07:31:26;;;;;;;2.63;1.43;;;17.30;99.90;;;;;;5071182;28;20227;-66
2023/08/08 07:33:52;;;;;;;3.27;1.50;;;17.30;99.90;;;;;;5071652;28;20195;-65
2023/08/08 07:36:17;;;;;;;2.80;1.40;;;17.30;99.90;;;;;;5053396;28;20243;-65
2023/08/08 07:38:43;;;;;;;6.57;1.20;;;17.30;99.90;;;;;;5071278;28;20709;-66
2023/08/08 07:41:09;;;;;;;1.93;1.43;;;17.30;99.90;;;;;;5070763;28;20209;-66
2023/08/08 07:43:35;;;;;;;3.23;1.47;;;17.30;99.90;;;;;;5052680;28;20204;-66
2023/08/08 07:46:01;;;;;;;3.53;1.00;;;17.40;99.90;;;;;;5070404;28;20421;-66
2023/08/08 07:48:26;;;;;;;2.60;1.63;;;17.40;99.90;;;;;;5070397;28;20391;-65
2023/08/08 07:50:52;;;;;;;4.90;1.10;;;17.40;99.90;;;;;;5069578;28;20252;-66
2023/08/08 07:53:17;;;;;;;2.90;1.50;;;17.40;99.90;;;;;;5052083;28;20231;-66
2023/08/08 07:55:43;;;;;;;2.40;1.33;;;17.50;99.90;;;;;;5070376;28;20267;-66
2023/08/08 07:58:08;;;;;;;1.37;1.20;;;17.50;99.90;;;;;;5070107;28;20554;-66
2023/08/08 08:00:38;;;;;;;2.23;1.23;;;17.60;99.90;;;;;;5052155;28;20202;-66
2023/08/08 08:03:04;;;;;;;4.50;1.37;;;17.60;99.90;;;;;;5070016;28;20213;-66
2023/08/08 08:05:30;;;;;;;1.50;1.37;;;17.80;99.90;;;;;;5070039;28;20794;-65
2023/08/08 08:07:56;;;;;;;3.47;1.83;;;17.80;99.90;;;;;;5052013;28;20801;-66
2023/08/08 08:10:21;;;;;;;1.50;1.30;;;17.90;99.90;;;;;;5069801;28;20499;-65
2023/08/08 08:12:47;;;;;;;2.47;1.30;;;18.00;99.90;;;;;;5069692;28;20213;-65
2023/08/08 08:15:13;;;;;;;2.33;1.43;;;18.10;99.90;;;;;;5069768;28;20186;-65
2023/08/08 08:17:39;;;;;;;5.20;1.50;;;18.10;99.90;;;;;;5069772;28;20232;-65
2023/08/08 08:20:10;;;;;;;4.47;1.47;;;18.20;99.90;;;;;;5069836;28;20465;-65
2023/08/08 08:22:37;;;;;;;2.93;1.37;;;18.40;99.90;;;;;;5069490;28;20484;-65
2023/08/08 08:25:04;;;;;;;3.80;1.80;;;18.50;99.90;;;;;;5069631;28;20566;-65
2023/08/08 08:27:29;;;;;;;5.17;1.57;;;18.50;99.90;;;;;;5069578;28;20524;-65
2023/08/08 08:29:55;;;;;;;2.30;1.70;;;18.50;99.90;;;;;;5069229;28;20555;-65
2023/08/08 08:32:20;;;;;;;2.90;1.50;;;18.30;99.90;;;;;;5069401;28;20708;-65
2023/08/08 08:34:46;;;;;;;3.23;1.57;;;18.50;99.90;;;;;;5069388;28;20594;-65
2023/08/08 08:37:12;;;;;;;5.33;2.03;;;18.70;99.90;;;;;;5069399;28;20294;-65
2023/08/08 08:39:37;;;;;;;2.63;1.80;;;18.80;99.90;;;;;;5069421;28;20183;-66
2023/08/08 08:42:05;;;;;;;2.17;1.50;;;18.80;99.90;;;;;;5069541;28;20210;-66
2023/08/08 08:44:34;;;;;;;2.13;1.20;;;18.80;99.90;;;;;;5069167;28;20195;-66
2023/08/08 08:47:02;;;;;;;2.10;1.53;;;18.80;99.90;;;;;;5069182;28;20433;-65
2023/08/08 08:49:30;;;;;;;2.23;1.43;;;18.80;99.90;;;;;;5069105;28;20491;-65
2023/08/08 08:52:00;;;;;;;2.20;1.30;;;18.70;99.90;;;;;;5068979;28;20882;-65
2023/08/08 08:54:27;;;;;;;1.70;1.37;;;18.80;99.70;;;;;;5069351;28;20414;-65
2023/08/08 08:56:53;;;;;;;2.37;1.27;;;18.70;99.90;;;;;;5068985;28;20939;-66
2023/08/08 08:59:18;;;;;;;3.03;1.30;;;18.70;96.90;;;;;;5068876;28;20419;-65
2023/08/08 09:01:44;;;;;;;5.10;2.03;;;18.90;99.20;;;;;;5068191;28;20759;-65
2023/08/08 09:04:10;;;;;;;5.03;1.27;;;19.20;99.10;;;;;;5068836;28;20195;-66
2023/08/08 09:06:38;;;;;;;3.87;1.50;;;19.20;98.30;;;;;;5068853;28;20181;-65
2023/08/08 09:09:04;;;;;;;5.97;1.63;;;19.30;98.60;;;;;;5068651;28;20595;-66
2023/08/08 09:11:31;;;;;;;2.63;1.40;;;19.30;98.90;;;;;;5068714;28;20545;-65
2023/08/08 09:13:56;;;;;;;1.93;1.20;;;19.60;98.80;;;;;;5068787;28;20269;-65
2023/08/08 09:16:23;;;;;;;3.47;1.30;;;19.80;99.20;;;;;;5069100;28;20991;-66
2023/08/08 09:18:48;;;;;;;2.83;1.40;;;19.90;99.90;;;;;;5068953;28;20654;-65
2023/08/08 09:21:15;;;;;;;1.47;1.23;;;20.00;99.90;;;;;;5068817;28;20441;-66
2023/08/08 09:23:41;;;;;;;4.40;1.97;;;20.50;99.10;;;;;;5069208;28;20182;-65
2023/08/08 09:26:06;;;;;;;1.97;1.40;;;20.80;99.20;;;;;;5069288;28;20816;-66
2023/08/08 09:28:32;;;;;;;2.73;1.43;;;20.70;99.90;;;;;;5069339;28;20305;-65
2023/08/08 09:30:58;;;;;;;2.63;1.57;;;20.40;99.90;;;;;;5068812;28;20272;-64
2023/08/08 09:33:27;;;;;;;3.33;1.50;;;20.60;99.90;;;;;;5068918;28;20838;-65
2023/08/08 09:35:54;;;;;;;5.40;1.80;;;20.70;99.20;;;;;;5068739;28;20175;-65
2023/08/08 09:38:20;;;;;;;9.00;1.40;;;20.70;99.70;;;;;;5068547;28;20850;-65
2023/08/08 09:40:46;;;;;;;4.27;1.37;;;21.00;99.60;;;;;;5068472;28;20453;-65
2023/08/08 09:43:12;;;;;;;5.40;1.60;;;21.30;99.90;;;;;;5068397;28;20213;-65
2023/08/08 09:45:38;;;;;;;3.60;1.67;;;21.60;99.90;;;;;;5068426;28;20187;-65
2023/08/08 09:48:06;;;;;;;3.30;1.60;;;21.90;98.30;;;;;;5068281;28;20421;-66
2023/08/08 09:50:33;;;;;;;3.00;1.50;;;22.10;99.10;;;;;;5068159;28;20840;-65
2023/08/08 09:52:58;;;;;;;2.50;1.30;;;22.10;97.00;;;;;;5068235;28;20426;-65
2023/08/08 09:55:25;;;;;;;2.50;1.40;;;22.20;97.30;;;;;;5068287;28;20416;-66
2023/08/08 09:57:52;;;;;;;1.97;1.37;;;21.90;97.50;;;;;;5068116;28;20187;-66
2023/08/08 10:00:20;;;;;;;1.77;1.63;;;21.80;98.10;;;;;;5068328;28;20824;-65
2023/08/08 10:02:46;;;;;;;3.00;1.67;;;21.80;96.80;;;;;;5068012;28;20449;-66
2023/08/08 10:05:13;;;;;;;1.40;1.30;;;21.60;96.90;;;;;;5068069;28;20417;-65
2023/08/08 10:07:43;;;;;;;3.30;1.43;;;21.90;97.60;;;;;;5067952;28;20421;-66
2023/08/08 10:10:09;;;;;;;2.63;1.40;;;22.20;95.50;;;;;;5067891;28;20457;-64
2023/08/08 10:12:39;;;;;;;3.73;1.60;;;22.20;94.80;;;;;;5067908;28;20438;-65
2023/08/08 10:15:08;;;;;;;4.73;2.33;;;22.50;95.80;;;;;;5072024;28;20425;-65
2023/08/08 10:17:38;;;;;;;8.37;1.50;;;22.80;95.50;;;;;;5071850;28;20428;-65
2023/08/08 10:20:23;;;;;;;3.73;1.20;;;22.80;94.30;;;;;;5071991;28;20516;-65
2023/08/08 10:22:54;;;;;;;1.90;1.50;;;22.90;94.00;;;;;;5071937;28;20434;-65
2023/08/08 10:25:25;;;;;;;5.90;1.63;;;23.10;95.40;;;;;;5071989;28;20428;-65
2023/08/08 10:28:10;;;;;;;1.87;1.20;;;23.20;93.40;;;;;;5071798;28;20425;-65
2023/08/08 10:30:55;;;;;;;2.67;1.33;;;22.90;92.90;;;;;;5071598;28;20520;-65
2023/08/08 10:33:23;;;;;;;1.83;1.47;;;22.90;94.20;;;;;;5071786;28;21103;-65
2023/08/08 10:35:55;;;;;;;1.50;1.40;;;23.00;94.40;;;;;;5071603;28;20864;-65
2023/08/08 10:38:22;;;;;;;1.90;1.10;;;23.40;94.10;;;;;;5071638;28;20762;-65
2023/08/08 10:40:47;;;;;;;4.13;1.10;;;23.30;93.20;;;;;;5071647;28;20444;-65
2023/08/08 10:43:13;;;;;;;2.20;1.27;;;23.30;91.50;;;;;;5071611;28;20419;-65
2023/08/08 10:45:44;;;;;;;6.70;1.73;;;23.50;93.40;;;;;;5071849;28;20194;-65
2023/08/08 10:48:10;;;;;;;3.43;1.40;;;23.70;93.10;;;;;;5071530;28;20165;-65
2023/08/08 10:50:41;;;;;;;2.10;1.30;;;23.80;92.30;;;;;;5071369;28;20457;-65
2023/08/08 10:53:10;;;;;;;2.57;1.50;;;23.80;91.50;;;;;;5071388;28;20888;-66
2023/08/08 10:55:36;;;;;;;2.37;1.07;;;23.90;90.90;;;;;;5071377;28;20425;-65
2023/08/08 10:58:10;;;;;;;2.60;1.60;;;24.10;91.80;;;;;;5071160;28;20418;-65
2023/08/08 11:00:41;;;;;;;3.73;1.20;;;24.20;91.80;;;;;;5070914;28;20414;-65
2023/08/08 11:03:08;;;;;;;1.47;1.27;;;24.90;92.90;;;;;;5071086;28;20813;-65
2023/08/08 11:05:35;;;;;;;1.83;1.53;;;24.90;93.40;;;;;;5071101;28;20531;-65
2023/08/08 11:08:03;;;;;;;4.07;1.70;;;24.90;90.60;;;;;;5071140;28;20427;-65
2023/08/08 11:10:34;;;;;;;4.30;1.63;;;24.70;90.70;;;;;;5070988;28;20466;-65
2023/08/08 11:13:03;;;;;;;1.63;1.50;;;24.70;90.50;;;;;;5071050;28;20534;-65
2023/08/08 11:15:29;;;;;;;2.83;1.50;;;24.70;91.20;;;;;;5071391;28;20427;-65
2023/08/08 11:17:59;;;;;;;2.70;1.50;;;25.10;90.70;;;;;;5071494;28;20427;-66
2023/08/08 11:20:24;;;;;;;2.07;1.00;;;25.40;91.50;;;;;;5071714;28;20515;-66
2023/08/08 11:22:54;;;;;;;1.73;1.23;;;25.20;90.80;;;;;;5071694;28;21038;-66
2023/08/08 11:25:21;;;;;;;3.37;1.60;;;25.20;92.80;;;;;;5070573;28;20915;-66
2023/08/08 11:27:54;;;;;;;2.43;1.60;;;25.30;91.80;;;;;;5071730;28;20619;-66
2023/08/08 11:30:21;;;;;;;3.40;1.50;;;24.70;90.30;;;;;;5052813;28;20472;-66
2023/08/08 11:32:48;;;;;;;1.73;1.00;;;24.20;91.50;;;;;;5071124;28;20428;-66
2023/08/08 11:35:22;;;;;;;4.13;2.10;;;24.50;91.20;;;;;;5071022;28;20504;-66
2023/08/08 11:37:52;;;;;;;2.87;1.27;;;24.90;91.60;;;;;;5071164;28;20563;-66
2023/08/08 11:40:20;;;;;;;4.10;1.53;;;25.30;91.40;;;;;;5071326;28;20421;-66
2023/08/08 11:42:46;;;;;;;3.40;1.43;;;25.30;91.80;;;;;;5071380;28;20461;-65
2023/08/08 11:45:12;;;;;;;2.80;1.30;;;25.40;91.30;;;;;;5071455;28;20429;-66
2023/08/08 11:47:39;;;;;;;1.77;1.20;;;25.40;91.10;;;;;;5070839;28;20490;-65
2023/08/08 11:50:07;;;;;;;2.93;1.80;;;25.30;91.20;;;;;;5070693;28;20460;-66
2023/08/08 11:52:39;;;;;;;1.50;1.20;;;25.60;90.20;;;;;;5070637;28;20557;-66
2023/08/08 11:55:06;;;;;;;1.93;1.33;;;25.60;90.90;;;;;;5070461;28;20924;-66
2023/08/08 11:57:33;;;;;;;1.67;1.57;;;25.50;89.20;;;;;;5070266;28;20471;-66
2023/08/08 11:59:59;;;;;;;5.23;1.50;;;25.40;90.00;;;;;;5070573;28;20473;-66
2023/08/08 12:02:26;;;;;;;2.30;1.23;;;25.60;90.90;;;;;;5070144;28;21015;-66
2023/08/08 12:04:52;;;;;;;1.73;0.90;;;25.70;91.20;;;;;;5070512;28;20545;-66
2023/08/08 12:07:19;;;;;;;2.67;1.30;;;25.80;89.50;;;;;;5070241;28;20424;-66
2023/08/08 12:09:47;;;;;;;2.80;1.50;;;26.10;91.10;;;;;;5070221;28;20206;-66
2023/08/08 12:12:13;;;;;;;3.20;1.30;;;26.00;91.50;;;;;;5070352;28;20436;-66
2023/08/08 12:14:41;;;;;;;1.63;1.20;;;25.40;89.00;;;;;;5052211;28;20413;-66
2023/08/08 12:17:08;;;;;;;2.03;1.47;;;25.00;88.00;;;;;;5070146;28;20426;-66
2023/08/08 12:19:34;;;;;;;2.33;1.73;;;24.30;86.10;;;;;;5070203;28;20458;-66
2023/08/08 12:22:00;;;;;;;2.10;1.10;;;23.90;86.60;;;;;;5069777;28;20448;-65
2023/08/08 12:24:25;;;;;;;2.17;1.53;;;23.40;86.50;;;;;;5070002;28;20653;-66
2023/08/08 12:26:51;;;;;;;4.87;1.47;;;23.80;88.30;;;;;;5070033;28;20185;-66
2023/08/08 12:29:17;;;;;;;3.63;1.47;;;24.50;87.90;;;;;;5069803;28;20591;-66
2023/08/08 12:31:42;;;;;;;1.30;1.10;;;25.00;87.00;;;;;;5069949;28;20331;-66
2023/08/08 12:34:08;;;;;;;5.00;1.60;;;25.20;85.90;;;;;;5069841;28;20187;-66
2023/08/08 12:36:34;;;;;;;3.67;1.90;;;25.10;85.90;;;;;;5069652;28;20182;-66
2023/08/08 12:38:59;;;;;;;4.53;1.40;;;24.60;83.40;;;;;;5069812;28;20197;-66
2023/08/08 12:41:26;;;;;;;2.00;1.43;;;24.60;83.70;;;;;;5069875;28;20316;-65
2023/08/08 12:43:52;;;;;;;4.63;1.33;;;24.80;85.00;;;;;;5070107;28;20513;-65